Colorado Springs, CO (80908)

2:01 PM MDT on October 15, 2019 (GMT -0600)
Black Forest | | Change Station
Active Advisory: Fire Weather Advisory

Elev 7425 ft 39.03 °N, 104.70 °W | Updated 35 seconds ago

Clear
Clear
54.9 °F
Feels Like 54.9 °F
N
4.5
Wind Variable Wind from SSW
Gusts 4.5 mph

Today
High -- | Low -- °F
--% Chance of Precip.
Yesterday
High -- | Low -- °F
Precip. -- in
Pressure 30.12 in
Visibility 10.0 miles
Clouds Clear
Dew Point 25 °F
Humidity 31%
Rainfall 0.00 in
Snow Depth Not available.
7:08 AM 6:20 PM
Waning Gibbous, 96% visible
METAR KAFF 151958Z AUTO 14003KT 10SM CLR 14/M06 A3021 RMK AO2 SLP197 T01351056
Pressure 30.12 in
Visibility 10.0 miles
Clouds Clear
Dew Point 25 °F
Humidity 31%
Rainfall 0.00 in
Snow Depth Not available.
7:08 AM 6:20 PM
Waning Gibbous, 96% visible
METAR KAFF 151958Z AUTO 14003KT 10SM CLR 14/M06 A3021 RMK AO2 SLP197 T01351056

Get Your Daily Forecast Email!

Thanks for signing up!

Be on the lookout for a verification email in your inbox.

You'll start receiving severe weather alerts in your inbox..

×

10-Day Weather Forecast

Almanac

Astronomy

Oct. 15, 2019 Rise Set
Actual Time
Civil Twilight
Nautical Twilight
Astronomical Twilight
Moon
Length of Visible Light
Length of Day
Tomorrow will be .
, % of the Moon is Illuminated

Today's Extremes

State Highs State Lows

Community

WunderPhotos

Category 6

Welcome to Category 6. This is the collective home for Weather Underground's featured writeups by Dr. Jeff Masters (right), Bob Henson (left), Chris Burt, and other regular contributors.

Nearby

Air Quality

  Air Quality AQ Index Pollutant
Not available.

Snow Depth

Station Depth Elevation

Earthquake Activity

City Distance Mag. Time & Date
Minimum magnitude displayed is 2.5.

Coastal Water Temperatures

Place Temperature

Stations

Nearby Weather Stations

Station Location Temp. Windchill Dew Point Humidity Wind Precip. Elev Updated Type
                   

Watches & Warnings

Fire Weather Advisory
Issued: 2:55 PM MDT Oct. 14, 2019 – National Weather Service

... Red flag warning remains in effect until 8 PM MDT this evening
for gusty winds and low relative humidity for fire weather zones
220... 222 and 223...

* affected area... fire weather zones 220... 221... 222... 223...
225... 226... 227... 228... 229 and 230.

* Winds... west 10 to 20 mph with gusts up to 30 mph.

* Relative humidity... as low as 8 percent.

* Impacts... conditions will be favorable for the rapid ignition,
growth, and spread of fires.

Precautionary/preparedness actions...

A red flag warning means that critical fire weather conditions
are either occurring now, or will shortly. A combination of
strong winds, low relative humidity, and warm temperatures can
contribute to extreme fire behavior.